Time;durP1;ratioP1;P1;durP2;ratioP2;P2;SDS_P1;SDS_P2;PMS_P1;PMS_P2;Temp;Humidity;BMP_temperature;BMP_pressure;BME280_temperature;BME280_humidity;BME280_pressure;Samples;Min_cycle;Max_cycle;Signal;HPM_P1;HPM_P2
2022/12/27 00:00:24;;;;;;;8.88;3.65;;;;;;;1.43;96.06;98997.25;4201041;28;20053;-77
2022/12/27 00:02:24;;;;;;;8.88;3.40;;;;;;;1.38;96.36;98996.22;4202606;28;20040;-76
2022/12/27 00:04:25;;;;;;;6.13;3.28;;;;;;;1.40;96.40;99006.84;4202982;28;20064;-77
2022/12/27 00:06:27;;;;;;;6.50;3.22;;;;;;;1.36;97.18;99008.56;4201456;28;20083;-76
2022/12/27 00:08:27;;;;;;;7.47;3.50;;;;;;;1.25;97.13;99002.53;4201589;28;20044;-76
2022/12/27 00:10:27;;;;;;;6.60;3.40;;;;;;;1.25;97.23;99018.88;4203505;28;20036;-76
2022/12/27 00:12:28;;;;;;;6.68;3.90;;;;;;;1.16;98.02;99008.97;4201488;28;20055;-76
2022/12/27 00:14:28;;;;;;;6.60;3.55;;;;;;;1.23;96.77;99023.00;4202573;28;20035;-76
2022/12/27 00:16:29;;;;;;;7.43;3.40;;;;;;;1.06;97.67;99018.97;4195925;28;20043;-76
2022/12/27 00:18:29;;;;;;;6.90;3.50;;;;;;;1.01;98.22;99029.16;4199410;28;20115;-76
2022/12/27 00:20:30;;;;;;;6.50;2.90;;;;;;;0.98;97.80;99037.94;4200676;28;20303;-76
2022/12/27 00:22:30;;;;;;;5.55;3.67;;;;;;;0.98;98.01;99041.47;4201013;28;20039;-76
2022/12/27 00:24:30;;;;;;;5.18;3.05;;;;;;;0.94;98.20;99037.75;4202642;28;20111;-76
2022/12/27 00:26:33;;;;;;;5.97;2.80;;;;;;;0.92;98.24;99050.06;4203563;28;20040;-76
2022/12/27 00:28:34;;;;;;;4.60;2.70;;;;;;;0.97;97.26;99053.47;4200897;28;20047;-76
2022/12/27 00:30:34;;;;;;;5.35;2.70;;;;;;;0.90;98.19;99053.06;4202781;28;20036;-76
2022/12/27 00:32:35;;;;;;;3.65;2.60;;;;;;;0.95;97.74;99047.53;4200690;28;20546;-76
2022/12/27 00:34:35;;;;;;;7.90;2.63;;;;;;;0.91;97.13;99040.22;4202643;28;20460;-76
2022/12/27 00:36:36;;;;;;;5.50;3.15;;;;;;;0.94;96.24;99039.66;4201776;28;20399;-76
2022/12/27 00:38:36;;;;;;;6.22;2.70;;;;;;;0.91;96.53;99041.06;4202141;28;20457;-76
2022/12/27 00:40:41;;;;;;;7.40;2.47;;;;;;;0.87;97.54;99041.97;4203300;28;20078;-76
2022/12/27 00:42:41;;;;;;;5.05;2.70;;;;;;;0.80;97.87;99045.88;4201868;28;20537;-76
2022/12/27 00:44:42;;;;;;;4.13;2.45;;;;;;;0.77;97.73;99051.13;4201241;28;20039;-76
2022/12/27 00:46:42;;;;;;;6.13;2.10;;;;;;;0.78;97.11;99050.81;4202282;28;20040;-76
2022/12/27 00:48:43;;;;;;;6.43;2.50;;;;;;;0.75;97.31;99051.44;4201590;28;20489;-76
2022/12/27 00:50:44;;;;;;;3.30;2.20;;;;;;;0.78;97.89;99058.19;4201752;28;20036;-76
2022/12/27 00:52:45;;;;;;;6.93;1.95;;;;;;;0.82;96.28;99067.38;4201647;28;20059;-76
2022/12/27 00:54:45;;;;;;;4.28;2.30;;;;;;;0.91;95.99;99059.31;4200620;28;20322;-75
2022/12/27 00:56:45;;;;;;;4.97;2.15;;;;;;;0.95;96.02;99069.31;4200354;28;20048;-76
2022/12/27 00:58:46;;;;;;;3.95;2.30;;;;;;;0.96;95.76;99064.69;4200972;28;20429;-76
2022/12/27 01:00:47;;;;;;;7.70;3.40;;;;;;;0.95;96.64;99063.06;4191129;28;20434;-76
2022/12/27 01:02:48;;;;;;;4.80;2.38;;;;;;;0.92;96.88;99074.56;4190539;28;20036;-76
2022/12/27 01:04:48;;;;;;;3.45;2.50;;;;;;;0.98;96.75;99076.06;4201155;28;20380;-76
2022/12/27 01:06:48;;;;;;;3.60;2.08;;;;;;;0.92;97.05;99080.03;4201386;28;20496;-76
2022/12/27 01:08:49;;;;;;;6.63;1.90;;;;;;;0.92;96.48;99085.47;4202489;28;20044;-76
2022/12/27 01:10:49;;;;;;;6.63;2.28;;;;;;;0.96;96.33;99089.19;4202135;28;20051;-76
2022/12/27 01:12:50;;;;;;;4.75;2.25;;;;;;;0.95;96.37;99082.94;4200434;28;20048;-76
2022/12/27 01:14:50;;;;;;;5.03;2.97;;;;;;;0.84;97.01;99090.50;4200352;28;20104;-76
2022/12/27 01:16:50;;;;;;;5.30;2.40;;;;;;;0.84;97.59;99093.22;4200623;28;20131;-76
2022/12/27 01:18:51;;;;;;;3.70;2.13;;;;;;;0.79;97.71;99095.22;4201738;28;20043;-76
2022/12/27 01:20:52;;;;;;;3.97;2.28;;;;;;;0.78;97.82;99101.78;4200323;28;20036;-76
2022/12/27 01:22:53;;;;;;;2.88;2.03;;;;;;;0.67;98.29;99106.59;4201166;28;20036;-76
2022/12/27 01:24:53;;;;;;;4.45;2.15;;;;;;;0.60;98.69;99113.53;4201719;28;20047;-76
2022/12/27 01:26:54;;;;;;;2.67;1.90;;;;;;;0.62;98.65;99111.31;4201599;28;20036;-76
2022/12/27 01:28:54;;;;;;;8.75;2.00;;;;;;;0.53;99.57;99122.88;4201809;28;20299;-76
2022/12/27 01:30:55;;;;;;;5.95;2.28;;;;;;;0.54;99.67;99127.22;4199984;28;20032;-75
2022/12/27 01:32:55;;;;;;;5.97;2.15;;;;;;;0.52;99.09;99136.78;4201278;28;20503;-76
2022/12/27 01:34:56;;;;;;;4.63;2.20;;;;;;;0.44;100.00;99134.72;4200074;28;20046;-76
2022/12/27 01:36:56;;;;;;;2.90;1.95;;;;;;;0.47;99.20;99142.28;4200249;28;20720;-76
2022/12/27 01:38:57;;;;;;;5.40;2.00;;;;;;;0.44;99.89;99138.25;4201550;28;20080;-76
2022/12/27 01:40:58;;;;;;;4.60;2.65;;;;;;;0.38;100.00;99147.59;4202098;28;20048;-76
2022/12/27 01:42:58;;;;;;;4.43;2.03;;;;;;;0.38;99.86;99138.63;4200861;28;20044;-76
2022/12/27 01:44:59;;;;;;;5.05;2.00;;;;;;;0.33;100.00;99131.31;4201706;28;20412;-75
2022/12/27 01:47:01;;;;;;;7.35;1.98;;;;;;;0.29;100.00;99127.59;4202306;28;20062;-76
2022/12/27 01:49:01;;;;;;;5.78;2.15;;;;;;;0.32;100.00;99127.00;4201674;28;20071;-75
2022/12/27 01:51:05;;;;;;;8.77;2.95;;;;;;;0.33;100.00;99135.97;4203796;28;20412;-76
2022/12/27 01:53:10;;;;;;;5.35;1.85;;;;;;;0.32;100.00;99139.78;4204400;28;20043;-76
2022/12/27 01:55:47;;;;;;;2.75;1.90;;;;;;;0.36;100.00;99138.13;4204380;28;20144;-76
2022/12/27 01:57:49;;;;;;;2.60;2.00;;;;;;;0.26;100.00;99136.34;4202803;28;20048;-75
2022/12/27 01:59:50;;;;;;;5.63;2.22;;;;;;;0.26;100.00;99139.88;4203379;28;20043;-76
2022/12/27 02:01:50;;;;;;;4.07;2.10;;;;;;;0.29;100.00;99141.19;4204729;28;20040;-76
2022/12/27 02:03:57;;;;;;;4.63;1.77;;;;;;;0.31;100.00;99140.91;4203863;28;20277;-75
2022/12/27 02:06:00;;;;;;;4.72;2.17;;;;;;;0.22;100.00;99140.75;4204495;28;20101;-75
2022/12/27 02:08:06;;;;;;;;;;;;;;;0.26;100.00;99147.25;4205796;28;20052;-75
2022/12/27 02:10:06;;;;;;;6.55;2.25;;;;;;;0.19;100.00;99158.50;4205369;28;19911;-75
2022/12/27 02:12:09;;;;;;;5.90;2.28;;;;;;;0.20;100.00;99140.25;4204381;28;20035;-75
2022/12/27 02:14:10;;;;;;;6.05;3.08;;;;;;;0.30;100.00;99137.38;4202728;28;20020;-75
2022/12/27 02:16:16;;;;;;;6.45;3.17;;;;;;;0.29;100.00;99135.75;4204145;28;20073;-76
2022/12/27 02:18:17;;;;;;;5.40;2.72;;;;;;;0.25;100.00;99137.47;4203716;28;20122;-76
2022/12/27 02:20:21;;;;;;;7.28;3.00;;;;;;;0.22;100.00;99141.56;4204453;28;20550;-75
2022/12/27 02:24:01;;;;;;;8.38;3.60;;;;;;;0.19;100.00;99144.06;4203579;28;20043;-75
2022/12/27 02:25:10;;;;;;;9.40;3.22;;;;;;;0.23;100.00;99140.44;4203970;28;20040;-75
2022/12/27 02:27:36;;;;;;;7.15;3.60;;;;;;;0.23;100.00;99139.66;4204275;28;20047;-75
2022/12/27 02:29:46;;;;;;;4.70;2.53;;;;;;;0.28;100.00;99132.22;4204405;28;20489;-75
2022/12/27 02:31:56;;;;;;;3.20;2.20;;;;;;;0.26;100.00;99142.59;4204587;28;20158;-75
2022/12/27 02:34:02;;;;;;;4.70;2.50;;;;;;;0.23;100.00;99136.94;4202734;28;20048;-75
2022/12/27 02:36:08;;;;;;;6.47;2.30;;;;;;;0.20;100.00;99132.88;4204134;28;20052;-76
2022/12/27 02:38:20;;;;;;;7.22;2.22;;;;;;;0.35;100.00;99136.50;4196322;28;20027;-76
2022/12/27 02:53:03;;;;;;;4.20;1.50;;;;;;;0.55;100.00;99142.44;4204154;28;20086;-76
2022/12/27 02:55:39;;;;;;;11.85;2.00;;;;;;;0.65;100.00;99149.63;4204065;28;20055;-75
2022/12/27 02:57:57;;;;;;;6.90;2.05;;;;;;;0.59;100.00;99144.59;4168490;28;20045;-75
2022/12/27 03:09:03;;;;;;;7.43;2.20;;;;;;;0.62;100.00;99141.25;4181312;28;20128;-75
2022/12/27 03:16:05;;;;;;;9.82;1.85;;;;;;;0.75;100.00;99151.41;4200346;28;20040;-75
2022/12/27 03:18:17;;;;;;;2.33;1.60;;;;;;;0.87;99.65;99156.38;4204674;28;20044;-75
2022/12/27 03:27:31;;;;;;;4.32;2.22;;;;;;;0.83;99.77;99137.09;4202947;28;20407;-76
2022/12/27 03:34:30;;;;;;;4.88;1.50;;;;;;;0.88;99.20;99161.53;4201530;28;20113;-76
2022/12/27 03:39:07;;;;;;;6.30;1.85;;;;;;;0.80;98.97;99163.00;4203826;28;20070;-76
2022/12/27 03:43:35;;;;;;;4.10;1.65;;;;;;;0.89;99.50;99162.34;4203114;28;20055;-75
2022/12/27 03:48:05;;;;;;;2.95;1.50;;;;;;;0.95;98.60;99172.06;4202050;28;19961;-75
2022/12/27 03:50:07;;;;;;;5.47;1.60;;;;;;;0.94;98.37;99175.88;4203327;28;20032;-75
2022/12/27 03:52:16;;;;;;;5.15;1.63;;;;;;;0.88;99.97;99171.63;4203240;28;20239;-75
2022/12/27 03:54:27;;;;;;;7.72;1.92;;;;;;;0.84;99.58;99183.13;4201670;28;20020;-75
2022/12/27 03:56:28;;;;;;;4.35;1.65;;;;;;;0.86;99.17;99180.09;4193585;28;20048;-75
2022/12/27 03:58:29;;;;;;;2.65;2.45;;;;;;;0.88;99.45;99180.59;4200464;28;20071;-76
2022/12/27 04:00:29;;;;;;;3.42;1.80;;;;;;;0.89;99.53;99178.69;4203951;28;20089;-75
2022/12/27 04:02:30;;;;;;;3.88;1.85;;;;;;;0.91;100.00;99174.56;4200815;28;20051;-75
2022/12/27 04:04:30;;;;;;;4.18;1.50;;;;;;;0.92;99.28;99175.38;4201972;28;20036;-75
2022/12/27 04:06:30;;;;;;;3.80;1.92;;;;;;;0.84;100.00;99166.78;4202085;28;20116;-76
2022/12/27 04:36:16;;;;;;;7.70;2.15;;;;;;;0.93;100.00;99199.59;4201238;28;20042;-75
2022/12/27 04:38:16;;;;;;;3.88;2.10;;;;;;;0.97;100.00;99197.88;4203005;28;20380;-75
2022/12/27 04:56:40;;;;;;;4.40;2.15;;;;;;;0.80;100.00;99200.34;4202356;28;20480;-76
2022/12/27 05:02:01;;;;;;;5.35;2.10;;;;;;;0.78;100.00;99206.09;4202067;28;20036;-75
2022/12/27 05:03:23;;;;;;;7.93;2.65;;;;;;;0.76;100.00;99200.13;4201707;28;20069;-76
2022/12/27 05:05:24;;;;;;;4.35;2.35;;;;;;;0.73;100.00;99206.16;4202343;28;20044;-75
2022/12/27 05:14:21;;;;;;;4.70;2.13;;;;;;;0.80;100.00;99208.50;4202481;28;20505;-76
2022/12/27 05:16:22;;;;;;;5.32;3.40;;;;;;;0.79;100.00;99209.63;4201935;28;20532;-76
2022/12/27 05:18:22;;;;;;;4.63;2.60;;;;;;;0.78;100.00;99216.19;4202580;28;20080;-75
2022/12/27 05:20:23;;;;;;;8.07;2.50;;;;;;;0.73;100.00;99208.88;4191577;28;20039;-75
2022/12/27 05:27:01;;;;;;;9.30;2.53;;;;;;;1.05;100.00;99218.19;4205032;28;20399;-75
2022/12/27 05:29:02;;;;;;;7.05;2.42;;;;;;;1.04;100.00;99222.84;4205024;28;20032;-75
2022/12/27 05:31:02;;;;;;;7.40;2.20;;;;;;;1.05;100.00;99216.28;4205084;28;20147;-76
2022/12/27 05:33:03;;;;;;;3.70;2.35;;;;;;;1.05;100.00;99221.72;4203157;28;20037;-76
2022/12/27 05:35:04;;;;;;;2.88;2.33;;;;;;;1.12;100.00;99224.91;4203317;28;20051;-76
2022/12/27 05:37:04;;;;;;;4.53;1.98;;;;;;;1.13;100.00;99221.06;4204665;28;20048;-75
2022/12/27 05:39:05;;;;;;;5.97;2.70;;;;;;;1.20;100.00;99222.59;4206221;28;20207;-75
2022/12/27 05:41:06;;;;;;;4.85;2.70;;;;;;;1.15;100.00;99209.03;4204498;28;20119;-76
2022/12/27 05:43:06;;;;;;;2.47;2.28;;;;;;;1.21;100.00;99216.84;4204274;28;20040;-75
2022/12/27 05:45:07;;;;;;;3.47;2.13;;;;;;;1.19;100.00;99213.63;4204147;28;20085;-76
2022/12/27 05:47:07;;;;;;;5.43;2.40;;;;;;;1.24;100.00;99205.38;4204071;28;20124;-76
2022/12/27 05:49:07;;;;;;;4.40;2.05;;;;;;;1.30;100.00;99211.53;4205435;28;20044;-75
2022/12/27 05:51:15;;;;;;;4.28;1.92;;;;;;;1.33;100.00;99211.75;4205512;28;20048;-76
2022/12/27 05:53:15;;;;;;;5.13;2.20;;;;;;;1.35;100.00;99216.88;4204662;28;20419;-76
2022/12/27 05:55:16;;;;;;;5.00;2.00;;;;;;;1.35;100.00;99217.69;4203642;28;20054;-76
2022/12/27 05:57:16;;;;;;;7.20;2.40;;;;;;;1.39;100.00;99220.63;4133732;28;20618;-75
2022/12/27 05:59:16;;;;;;;6.20;2.38;;;;;;;1.37;100.00;99220.94;4179885;27;20074;-75
2022/12/27 06:01:17;;;;;;;4.20;1.90;;;;;;;1.50;100.00;99229.47;4198666;28;20205;-75
2022/12/27 06:03:18;;;;;;;5.70;1.75;;;;;;;1.46;100.00;99222.97;4201943;28;20130;-75
2022/12/27 06:05:18;;;;;;;8.32;2.22;;;;;;;1.54;100.00;99217.63;4197785;28;20408;-75
2022/12/27 06:07:18;;;;;;;3.10;1.98;;;;;;;1.56;100.00;99220.06;4200489;28;20043;-75
2022/12/27 06:09:19;;;;;;;2.97;1.98;;;;;;;1.65;100.00;99220.97;4203886;28;20648;-76
2022/12/27 06:11:19;;;;;;;4.20;2.00;;;;;;;1.70;100.00;99220.88;4203918;28;20459;-75
2022/12/27 06:13:19;;;;;;;2.72;1.73;;;;;;;1.74;100.00;99229.25;4202401;28;20061;-76
2022/12/27 06:15:20;;;;;;;6.28;2.15;;;;;;;1.71;100.00;99221.69;4202322;28;20075;-75
2022/12/27 06:17:20;;;;;;;2.35;1.77;;;;;;;1.82;100.00;99248.50;4200390;28;20212;-75
2022/12/27 06:19:20;;;;;;;7.30;2.17;;;;;;;1.90;99.64;99231.44;4203863;28;20571;-75
2022/12/27 06:21:21;;;;;;;4.63;2.05;;;;;;;1.89;99.88;99228.97;4205282;28;20048;-75
2022/12/27 06:23:21;;;;;;;2.25;1.55;;;;;;;1.95;99.12;99225.84;4203579;28;20046;-75
2022/12/27 06:25:21;;;;;;;2.92;1.48;;;;;;;1.97;99.09;99239.19;4203483;28;20040;-75
2022/12/27 06:27:22;;;;;;;3.58;1.65;;;;;;;1.98;99.69;99235.34;4201833;28;20479;-75
2022/12/27 06:29:22;;;;;;;3.17;1.67;;;;;;;2.01;100.00;99233.97;4204201;28;20052;-75
2022/12/27 06:31:24;;;;;;;3.42;1.80;;;;;;;1.97;99.37;99229.09;4203570;28;20487;-75
2022/12/27 06:33:25;;;;;;;4.18;2.03;;;;;;;1.98;99.32;99235.34;4194904;28;20040;-75
2022/12/27 06:35:25;;;;;;;1.90;1.50;;;;;;;1.92;100.00;99233.84;4201436;28;20083;-76
2022/12/27 06:37:26;;;;;;;3.83;1.58;;;;;;;1.91;100.00;99230.31;4202329;28;20040;-75
2022/12/27 06:39:26;;;;;;;8.43;2.28;;;;;;;1.91;100.00;99238.50;4200596;28;20048;-75
2022/12/27 06:41:26;;;;;;;4.93;1.67;;;;;;;1.86;100.00;99244.03;4202322;28;20040;-75
2022/12/27 06:43:27;;;;;;;6.68;1.63;;;;;;;1.82;100.00;99237.59;4202660;28;20048;-75
2022/12/27 06:45:27;;;;;;;5.32;1.80;;;;;;;1.80;99.42;99250.69;4204315;28;20454;-75
2022/12/27 06:47:27;;;;;;;4.53;2.30;;;;;;;1.79;99.70;99235.44;4202885;28;20801;-75
2022/12/27 06:49:28;;;;;;;3.42;1.85;;;;;;;1.78;100.00;99233.03;4205661;28;20347;-75
2022/12/27 06:51:29;;;;;;;5.82;1.90;;;;;;;1.77;99.31;99234.94;4202999;28;20083;-75
2022/12/27 06:53:29;;;;;;;4.10;1.63;;;;;;;1.79;99.34;99238.19;4203067;28;20040;-76
2022/12/27 06:55:29;;;;;;;5.10;2.38;;;;;;;1.81;99.00;99240.59;4202854;28;20036;-75
2022/12/27 06:57:30;;;;;;;4.63;2.28;;;;;;;1.79;99.04;99243.63;4204018;28;20093;-75
2022/12/27 06:59:30;;;;;;;6.93;2.22;;;;;;;1.82;98.90;99242.22;4203993;28;20503;-75
2022/12/27 07:01:30;;;;;;;6.13;2.15;;;;;;;1.81;99.07;99243.31;4202565;28;20044;-74
2022/12/27 07:03:31;;;;;;;3.22;2.15;;;;;;;1.85;98.28;99256.06;4202660;28;20469;-75
2022/12/27 07:05:35;;;;;;;2.80;1.77;;;;;;;1.87;98.47;99255.78;4202929;28;20082;-76
2022/12/27 07:07:35;;;;;;;4.38;1.58;;;;;;;1.94;98.21;99253.44;4202721;28;20040;-75
2022/12/27 07:09:35;;;;;;;1.95;1.63;;;;;;;1.91;98.66;99262.25;4202653;28;20553;-75
2022/12/27 07:11:36;;;;;;;4.57;1.80;;;;;;;1.91;99.04;99275.91;4201852;28;20453;-75
2022/12/27 07:13:42;;;;;;;4.05;1.50;;;;;;;1.92;98.89;99272.06;4202655;28;20075;-75
2022/12/27 07:15:43;;;;;;;4.43;1.40;;;;;;;1.93;98.92;99265.50;4201634;28;20039;-75
2022/12/27 07:17:43;;;;;;;4.50;1.60;;;;;;;1.85;99.90;99269.72;4204388;28;20516;-75
2022/12/27 07:19:43;;;;;;;6.28;1.60;;;;;;;1.86;99.47;99274.06;4203343;28;20044;-75
2022/12/27 07:21:44;;;;;;;2.40;1.40;;;;;;;1.84;99.85;99272.75;4203273;28;20125;-75
2022/12/27 07:23:44;;;;;;;5.07;2.42;;;;;;;1.84;100.00;99291.84;4201760;28;20051;-76
2022/12/27 07:25:45;;;;;;;5.78;1.80;;;;;;;1.82;99.99;99277.69;4202452;28;20072;-75
2022/12/27 07:27:45;;;;;;;3.88;1.50;;;;;;;1.83;100.00;99290.25;4203520;28;20050;-75
2022/12/27 07:29:45;;;;;;;5.57;2.15;;;;;;;1.85;99.93;99293.47;4203188;28;20073;-75
2022/12/27 07:31:46;;;;;;;3.80;1.52;;;;;;;1.86;100.00;99300.53;4194346;28;20044;-75
2022/12/27 07:33:46;;;;;;;3.58;1.58;;;;;;;1.83;100.00;99310.16;4201463;28;20358;-75
2022/12/27 07:35:46;;;;;;;4.72;1.90;;;;;;;1.84;100.00;99302.78;4203274;28;20051;-75
2022/12/27 07:37:47;;;;;;;4.57;1.83;;;;;;;1.82;100.00;99310.44;4201452;28;20778;-75
2022/12/27 07:39:47;;;;;;;11.70;3.13;;;;;;;1.83;100.00;99301.16;4202027;28;20091;-76
2022/12/27 07:41:47;;;;;;;4.15;1.98;;;;;;;1.78;100.00;99309.41;4199483;28;20055;-75
2022/12/27 07:43:48;;;;;;;5.68;1.88;;;;;;;1.82;100.00;99313.16;4202094;28;20433;-75
2022/12/27 07:45:48;;;;;;;3.33;1.58;;;;;;;1.84;100.00;99311.75;4203538;28;20117;-75
2022/12/27 07:47:48;;;;;;;5.95;1.50;;;;;;;1.95;100.00;99313.19;4201243;28;20113;-75
2022/12/27 07:49:49;;;;;;;3.45;1.85;;;;;;;1.93;100.00;99312.69;4203034;28;20459;-75
2022/12/27 07:51:49;;;;;;;7.50;1.90;;;;;;;1.93;100.00;99317.34;4201148;28;20330;-75
2022/12/27 07:53:50;;;;;;;4.05;1.92;;;;;;;1.91;100.00;99325.03;4201860;28;20067;-75
2022/12/27 07:55:52;;;;;;;5.53;1.90;;;;;;;1.98;99.72;99319.97;4202655;28;20071;-75
2022/12/27 07:57:52;;;;;;;5.70;2.00;;;;;;;1.90;100.00;99313.31;4202612;28;20417;-75
2022/12/27 07:59:53;;;;;;;4.57;1.70;;;;;;;1.90;100.00;99313.31;4201019;28;20034;-75
2022/12/27 08:02:05;;;;;;;7.25;1.85;;;;;;;1.86;100.00;99316.91;4201448;28;20122;-75
2022/12/27 08:04:05;;;;;;;2.85;1.80;;;;;;;1.90;100.00;99318.75;4201597;28;20055;-75
2022/12/27 08:06:07;;;;;;;6.78;2.63;;;;;;;1.87;100.00;99322.06;4202254;28;20020;-75
2022/12/27 08:08:07;;;;;;;7.13;1.70;;;;;;;1.96;100.00;99316.72;4202510;28;20429;-75
2022/12/27 08:10:09;;;;;;;3.17;1.50;;;;;;;1.94;100.00;99327.16;4202914;28;20032;-75
2022/12/27 08:12:10;;;;;;;4.10;1.65;;;;;;;1.87;100.00;99316.63;4201601;28;20107;-75
2022/12/27 08:14:10;;;;;;;2.75;1.60;;;;;;;1.83;100.00;99315.59;4201458;28;20111;-75
2022/12/27 08:16:18;;;;;;;5.13;1.58;;;;;;;1.79;100.00;99333.69;4202220;28;20024;-75
2022/12/27 08:18:18;;;;;;;3.15;1.80;;;;;;;1.93;100.00;99336.44;4202876;28;20044;-75
2022/12/27 08:20:18;;;;;;;3.00;2.00;;;;;;;1.93;100.00;99329.06;4202075;28;20121;-75
2022/12/27 08:22:20;;;;;;;6.28;2.30;;;;;;;1.92;100.00;99329.38;4201041;28;20035;-76
2022/12/27 08:24:20;;;;;;;7.30;1.73;;;;;;;1.98;100.00;99336.34;4199410;28;20038;-75
2022/12/27 08:26:20;;;;;;;3.47;2.00;;;;;;;2.09;100.00;99345.97;4202626;28;20035;-75
2022/12/27 08:28:21;;;;;;;4.88;2.30;;;;;;;2.13;100.00;99349.72;4201392;28;20489;-75
2022/12/27 08:30:21;;;;;;;3.10;1.90;;;;;;;2.13;100.00;99355.16;4199851;28;20427;-75
2022/12/27 08:32:22;;;;;;;2.72;2.28;;;;;;;2.11;100.00;99353.84;4204178;28;20117;-76
2022/12/27 08:34:22;;;;;;;4.13;1.90;;;;;;;2.12;100.00;99359.00;4202577;28;20040;-75
2022/12/27 08:36:22;;;;;;;4.82;2.20;;;;;;;2.13;100.00;99359.81;4201930;28;20627;-75
2022/12/27 08:38:23;;;;;;;4.50;2.20;;;;;;;2.12;100.00;99360.94;4202887;28;20418;-75
2022/12/27 08:40:23;;;;;;;3.70;1.90;;;;;;;2.17;100.00;99363.59;4202072;28;20035;-75
2022/12/27 08:42:24;;;;;;;3.92;1.67;;;;;;;2.25;99.95;99371.09;4202076;28;20039;-76
2022/12/27 08:44:26;;;;;;;4.40;1.80;;;;;;;2.27;100.00;99374.31;4201914;28;20040;-76
2022/12/27 08:46:26;;;;;;;2.67;1.88;;;;;;;2.35;100.00;99389.19;4202278;28;20071;-76
2022/12/27 08:48:27;;;;;;;4.80;1.98;;;;;;;2.44;99.37;99382.72;4201384;28;20378;-76
2022/12/27 08:50:28;;;;;;;4.22;1.92;;;;;;;2.46;99.56;99379.69;4200823;28;20039;-76
2022/12/27 08:52:28;;;;;;;4.32;2.40;;;;;;;2.51;99.04;99380.41;4201541;28;20384;-76
2022/12/27 08:54:28;;;;;;;5.05;2.28;;;;;;;2.57;98.52;99383.84;4201173;28;20090;-75
2022/12/27 08:56:29;;;;;;;5.60;2.08;;;;;;;2.62;98.68;99385.66;4202220;28;20082;-75
2022/12/27 08:58:29;;;;;;;5.03;2.40;;;;;;;2.60;99.05;99371.50;4199856;28;20237;-75
2022/12/27 09:00:30;;;;;;;10.43;3.65;;;;;;;2.66;98.54;99387.50;4200483;28;20105;-75
2022/12/27 09:02:31;;;;;;;4.07;2.30;;;;;;;2.64;98.60;99381.50;4198975;28;20135;-75
2022/12/27 09:04:31;;;;;;;5.22;2.30;;;;;;;2.65;97.81;99379.59;4200836;28;20376;-76
2022/12/27 09:06:32;;;;;;;5.57;2.28;;;;;;;2.71;97.23;99373.72;4200242;28;20415;-76
2022/12/27 09:08:32;;;;;;;8.05;1.83;;;;;;;2.78;96.69;99385.06;4200698;28;20032;-76
2022/12/27 09:10:32;;;;;;;4.22;1.98;;;;;;;2.80;96.84;99390.22;4200834;28;20838;-76
2022/12/27 09:12:33;;;;;;;6.32;2.08;;;;;;;2.94;96.25;99401.16;4200906;28;20492;-76
2022/12/27 09:14:33;;;;;;;5.88;2.38;;;;;;;2.95;96.75;99386.34;4202952;28;20043;-76
2022/12/27 09:16:34;;;;;;;4.57;2.50;;;;;;;2.98;96.36;99400.25;4201077;28;20243;-76
2022/12/27 09:18:35;;;;;;;6.22;2.45;;;;;;;3.01;96.97;99398.81;4201652;28;20305;-75
2022/12/27 09:20:36;;;;;;;5.22;2.55;;;;;;;3.06;96.51;99395.94;4201699;28;20530;-76
2022/12/27 09:22:37;;;;;;;3.67;1.63;;;;;;;2.97;97.07;99395.06;4200020;28;20095;-76
2022/12/27 09:24:38;;;;;;;2.85;1.83;;;;;;;2.91;97.71;99399.84;4200666;28;20036;-76
2022/12/27 09:26:38;;;;;;;4.45;1.55;;;;;;;2.90;97.16;99400.97;4200807;28;20667;-76
2022/12/27 09:28:40;;;;;;;4.40;2.03;;;;;;;2.90;97.22;99400.16;4200883;28;20078;-75
2022/12/27 09:30:43;;;;;;;3.85;1.70;;;;;;;2.97;96.43;99401.34;4200871;28;20074;-76
2022/12/27 09:32:43;;;;;;;4.97;1.98;;;;;;;2.89;97.05;99410.25;4200120;28;20044;-76
2022/12/27 09:34:43;;;;;;;6.03;1.45;;;;;;;2.90;96.70;99397.41;4199515;28;20036;-76
2022/12/27 09:36:44;;;;;;;5.22;1.80;;;;;;;2.86;97.28;99410.06;4201827;28;20233;-76
2022/12/27 09:38:45;;;;;;;5.20;1.88;;;;;;;2.81;97.32;99402.75;4201028;28;20036;-76
2022/12/27 09:40:58;;;;;;;3.03;1.70;;;;;;;2.92;96.95;99414.31;4201447;28;20317;-76
2022/12/27 09:43:08;;;;;;;5.07;2.05;;;;;;;3.06;95.07;99415.09;4202190;28;20088;-76
2022/12/27 09:45:47;;;;;;;4.32;2.05;;;;;;;3.15;94.26;99407.00;4200199;28;20043;-76
2022/12/27 09:47:55;;;;;;;8.02;2.33;;;;;;;3.17;95.55;99418.44;4159916;28;20463;-76
2022/12/27 09:50:03;;;;;;;2.72;1.50;;;;;;;3.23;94.86;99425.44;4154435;28;20486;-76
2022/12/27 09:52:13;;;;;;;3.75;2.05;;;;;;;3.28;94.65;99428.84;4161864;28;20260;-76
2022/12/27 09:54:31;;;;;;;6.00;2.70;;;;;;;3.36;94.11;99419.09;4200026;28;20487;-76
2022/12/27 09:56:33;;;;;;;5.80;2.30;;;;;;;3.40;93.68;99425.59;4200281;28;20059;-76
2022/12/27 09:58:49;;;;;;;4.85;2.28;;;;;;;3.42;93.12;99430.75;4197922;28;20090;-75
2022/12/27 10:00:50;;;;;;;4.03;2.60;;;;;;;3.39;94.36;99437.63;4201478;28;20052;-76
2022/12/27 10:02:50;;;;;;;4.30;2.88;;;;;;;3.54;93.24;99434.56;4200004;28;20447;-76
2022/12/27 10:04:53;;;;;;;5.03;2.45;;;;;;;3.60;93.31;99436.06;4201397;28;20047;-76
2022/12/27 10:07:28;;;;;;;5.22;2.20;;;;;;;3.65;94.25;99443.38;4200855;28;20037;-76
2022/12/27 10:09:50;;;;;;;3.88;2.58;;;;;;;3.63;93.06;99446.38;4199246;28;20506;-76
2022/12/27 10:11:59;;;;;;;3.38;2.17;;;;;;;3.65;93.05;99437.91;4203732;28;20047;-76
2022/12/27 10:14:28;;;;;;;4.63;2.03;;;;;;;3.68;92.23;99445.47;4203326;28;20055;-76
2022/12/27 10:16:49;;;;;;;3.20;1.75;;;;;;;3.64;93.05;99452.66;4201741;28;20044;-76
2022/12/27 10:18:55;;;;;;;4.78;2.22;;;;;;;3.64;92.13;99438.97;4204204;28;20052;-76
2022/12/27 10:21:25;;;;;;;6.05;1.95;;;;;;;3.66;92.34;99439.50;4204883;28;20392;-76
2022/12/27 10:23:31;;;;;;;2.50;1.77;;;;;;;3.62;92.55;99435.75;4203673;28;20067;-76
2022/12/27 10:25:34;;;;;;;3.97;1.90;;;;;;;3.57;92.83;99431.22;4203676;28;20126;-76
2022/12/27 10:27:35;;;;;;;3.90;1.85;;;;;;;3.50;92.69;99435.50;4203855;28;20423;-76
2022/12/27 10:29:36;;;;;;;4.53;1.88;;;;;;;3.47;93.46;99425.97;4203699;28;20036;-76
2022/12/27 10:31:41;;;;;;;6.40;1.95;;;;;;;3.48;93.15;99441.28;4203387;28;20032;-76
2022/12/27 10:33:42;;;;;;;3.78;1.77;;;;;;;3.45;92.87;99446.53;4194119;28;20435;-78
2022/12/27 10:35:42;;;;;;;3.13;1.77;;;;;;;3.43;92.60;99441.38;4201907;28;20169;-78
2022/12/27 10:37:44;;;;;;;4.35;2.10;;;;;;;3.46;92.68;99445.41;4200703;28;20052;-78
2022/12/27 10:39:44;;;;;;;5.53;2.05;;;;;;;3.43;92.28;99446.06;4190319;28;20076;-77
2022/12/27 10:42:09;;;;;;;4.72;1.88;;;;;;;3.51;91.58;99453.53;4204316;28;20040;-78
2022/12/27 10:44:11;;;;;;;4.30;1.70;;;;;;;3.57;91.73;99446.84;4201616;28;20364;-78
2022/12/27 10:46:15;;;;;;;4.53;2.08;;;;;;;3.56;91.18;99445.22;4202787;28;20024;-77
2022/12/27 10:48:24;;;;;;;4.88;2.17;;;;;;;3.55;91.01;99446.31;4202044;28;20051;-77
2022/12/27 10:50:28;;;;;;;3.55;2.00;;;;;;;3.55;91.06;99438.09;4204091;28;20032;-78
2022/12/27 10:52:33;;;;;;;3.70;1.88;;;;;;;3.54;90.75;99447.44;4203750;28;20115;-77
2022/12/27 10:54:34;;;;;;;3.13;1.60;;;;;;;3.48;90.67;99454.97;4204162;28;20051;-77
2022/12/27 10:56:38;;;;;;;5.18;1.48;;;;;;;3.48;91.68;99446.75;4203628;28;20028;-78
2022/12/27 10:58:41;;;;;;;3.30;2.05;;;;;;;3.56;90.69;99445.22;4204045;28;20047;-78
2022/12/27 11:00:52;;;;;;;5.00;1.80;;;;;;;3.60;90.50;99457.16;4200736;28;20110;-78
2022/12/27 11:02:57;;;;;;;3.20;1.73;;;;;;;3.51;90.94;99456.25;4201817;28;20948;-78
2022/12/27 11:04:59;;;;;;;3.00;1.50;;;;;;;3.52;91.27;99450.47;4204824;28;20367;-77
2022/12/27 11:07:00;;;;;;;6.13;1.77;;;;;;;3.55;92.01;99449.84;4204271;28;20608;-78
2022/12/27 11:09:35;;;;;;;4.65;1.63;;;;;;;3.56;90.48;99439.75;4203581;28;20055;-77
2022/12/27 11:11:35;;;;;;;7.78;1.63;;;;;;;3.54;90.28;99440.03;4196477;28;20043;-77
2022/12/27 11:13:36;;;;;;;3.70;1.80;;;;;;;3.56;89.83;99448.75;4202148;28;20063;-77
2022/12/27 11:15:40;;;;;;;2.78;1.60;;;;;;;3.63;89.37;99443.66;4203363;28;20204;-77
2022/12/27 11:17:44;;;;;;;5.35;1.50;;;;;;;3.66;89.97;99442.25;4203686;28;20040;-77
2022/12/27 11:19:46;;;;;;;3.55;1.58;;;;;;;3.67;90.05;99441.13;4203612;28;20321;-77
2022/12/27 11:21:47;;;;;;;3.20;1.70;;;;;;;3.66;89.49;99444.97;4203471;28;20057;-77
2022/12/27 11:23:52;;;;;;;2.38;1.55;;;;;;;3.66;89.25;99439.50;4203296;28;20471;-77
2022/12/27 11:25:58;;;;;;;3.67;1.50;;;;;;;3.69;89.07;99438.06;4202675;28;20040;-77
2022/12/27 11:28:24;;;;;;;3.42;1.95;;;;;;;3.75;89.23;99431.38;4201612;28;20097;-77